createdAt,value
2022-12-19T00:00:14.874Z,14.80
2022-12-19T00:02:42.721Z,21.40
2022-12-19T00:05:11.094Z,16.47
2022-12-19T00:07:38.356Z,14.33
2022-12-19T00:10:06.768Z,18.57
2022-12-19T00:12:34.106Z,21.00
2022-12-19T00:15:02.001Z,15.33
2022-12-19T00:17:29.374Z,16.70
2022-12-19T00:19:57.095Z,15.10
2022-12-19T00:22:24.585Z,14.90
2022-12-19T00:24:52.124Z,13.00
2022-12-19T00:27:19.379Z,17.80
2022-12-19T00:29:47.555Z,16.93
2022-12-19T00:32:15.673Z,15.73
2022-12-19T00:34:43.993Z,17.00
2022-12-19T00:37:11.924Z,16.10
2022-12-19T00:39:39.237Z,13.13
2022-12-19T00:42:06.723Z,15.87
2022-12-19T00:44:34.121Z,22.10
2022-12-19T00:47:01.490Z,14.77
2022-12-19T00:49:28.832Z,14.50
2022-12-19T00:51:57.969Z,15.20
2022-12-19T00:54:25.467Z,15.67
2022-12-19T00:56:53.300Z,19.70
2022-12-19T00:59:26.694Z,20.43
2022-12-19T01:01:57.574Z,14.17
2022-12-19T01:04:29.577Z,11.73
2022-12-19T01:06:59.791Z,17.50
2022-12-19T01:09:33.516Z,15.50
2022-12-19T01:12:19.429Z,20.13
2022-12-19T01:14:48.518Z,16.77
2022-12-19T01:17:15.933Z,13.47
2022-12-19T01:19:44.573Z,18.10
2022-12-19T01:22:13.927Z,18.53
2022-12-19T01:24:41.375Z,13.87
2022-12-19T01:27:09.198Z,15.60
2022-12-19T01:29:36.756Z,12.13
2022-12-19T01:34:45.835Z,13.70
2022-12-19T01:37:13.103Z,11.93
2022-12-19T01:39:40.482Z,16.30
2022-12-19T01:42:23.028Z,16.00
2022-12-19T01:45:12.142Z,15.50
2022-12-19T01:47:56.673Z,16.60
2022-12-19T01:50:32.526Z,15.50
2022-12-19T01:53:01.932Z,13.50
2022-12-19T01:55:31.177Z,18.17
2022-12-19T01:57:59.905Z,10.67
2022-12-19T02:00:27.341Z,14.60
2022-12-19T02:03:01.876Z,18.10
2022-12-19T02:05:29.957Z,13.63
2022-12-19T02:08:00.207Z,15.07
2022-12-19T02:10:27.738Z,18.10
2022-12-19T02:12:55.227Z,13.97
2022-12-19T02:15:23.524Z,12.47
2022-12-19T02:18:38.245Z,18.80
2022-12-19T02:21:35.477Z,9.83
2022-12-19T02:24:32.052Z,15.10
2022-12-19T02:27:42.305Z,13.20
2022-12-19T02:30:15.556Z,15.27
2022-12-19T02:33:02.077Z,9.57
2022-12-19T02:35:47.076Z,17.80
2022-12-19T02:38:40.565Z,10.63
2022-12-19T02:41:28.591Z,11.20
2022-12-19T02:44:00.751Z,14.98
2022-12-19T02:46:31.024Z,14.57
2022-12-19T02:48:59.104Z,13.47
2022-12-19T02:51:26.509Z,13.60
2022-12-19T02:53:53.909Z,12.43
2022-12-19T02:56:40.660Z,13.30
2022-12-19T02:59:57.143Z,10.23
2022-12-19T03:02:45.970Z,8.43
2022-12-19T03:05:54.901Z,11.57
2022-12-19T03:08:28.031Z,12.67
2022-12-19T03:11:00.589Z,11.77
2022-12-19T03:13:46.107Z,11.60
2022-12-19T03:16:14.500Z,13.13
2022-12-19T03:18:42.485Z,8.63
2022-12-19T03:21:32.067Z,16.30
2022-12-19T03:24:00.396Z,8.13
2022-12-19T03:26:34.767Z,13.67
2022-12-19T03:29:19.030Z,14.40
2022-12-19T03:31:47.362Z,13.53
2022-12-19T03:34:27.575Z,14.10
2022-12-19T03:36:59.610Z,12.07
2022-12-19T03:39:29.298Z,12.47
2022-12-19T03:42:18.361Z,11.87
2022-12-19T03:44:46.844Z,12.43
2022-12-19T03:47:51.648Z,12.20
2022-12-19T03:50:19.331Z,9.70
2022-12-19T03:52:50.910Z,18.27
2022-12-19T03:55:46.605Z,13.60
2022-12-19T03:58:21.619Z,13.20
2022-12-19T04:00:51.054Z,11.00
2022-12-19T04:03:20.412Z,12.90
2022-12-19T04:05:49.396Z,13.90
2022-12-19T04:08:17.615Z,14.13
2022-12-19T04:10:51.664Z,12.77
2022-12-19T04:13:29.919Z,8.60
2022-12-19T04:16:29.367Z,14.30
2022-12-19T04:19:03.186Z,9.50
2022-12-19T04:21:41.339Z,13.73
2022-12-19T04:24:14.146Z,13.00
2022-12-19T04:26:43.948Z,20.70
2022-12-19T04:29:14.188Z,11.23
2022-12-19T04:31:42.401Z,12.97
2022-12-19T04:34:09.805Z,15.73
2022-12-19T04:36:37.277Z,12.67
2022-12-19T04:39:04.795Z,14.70
2022-12-19T04:41:32.165Z,19.43
2022-12-19T04:43:59.722Z,13.40
2022-12-19T04:46:27.058Z,10.70
2022-12-19T04:48:54.511Z,15.47
2022-12-19T04:51:21.895Z,13.60
2022-12-19T04:53:49.184Z,12.00
2022-12-19T04:56:16.452Z,14.20
2022-12-19T04:58:45.068Z,19.27
2022-12-19T05:01:14.368Z,17.63
2022-12-19T05:03:41.830Z,13.10
2022-12-19T05:06:14.058Z,16.73
2022-12-19T05:08:43.087Z,12.57
2022-12-19T05:11:19.211Z,17.20
2022-12-19T05:13:47.385Z,14.53
2022-12-19T05:16:16.071Z,12.23
2022-12-19T05:18:44.292Z,17.17
2022-12-19T05:21:11.785Z,17.90
2022-12-19T05:23:39.225Z,16.07
2022-12-19T05:26:07.434Z,15.90
2022-12-19T05:28:35.565Z,12.73
2022-12-19T05:31:15.039Z,15.60
2022-12-19T05:33:43.279Z,16.97
2022-12-19T05:36:11.489Z,11.13
2022-12-19T05:38:39.184Z,15.47
2022-12-19T05:41:08.086Z,19.93
2022-12-19T05:43:35.358Z,17.83
2022-12-19T05:46:05.036Z,16.40
2022-12-19T05:48:32.503Z,21.43
2022-12-19T05:50:59.974Z,23.97
2022-12-19T05:53:28.413Z,14.90
2022-12-19T05:56:08.650Z,17.27
2022-12-19T05:58:36.834Z,16.33
2022-12-19T06:01:18.308Z,16.70
2022-12-19T06:03:46.128Z,19.13
2022-12-19T06:06:20.591Z,17.60
2022-12-19T06:08:48.165Z,19.20
2022-12-19T06:11:15.596Z,17.17
2022-12-19T06:13:43.135Z,15.10
2022-12-19T06:16:13.396Z,19.27
2022-12-19T06:18:44.809Z,13.57
2022-12-19T06:23:39.847Z,17.20
2022-12-19T06:26:10.387Z,14.50
2022-12-19T06:28:40.374Z,19.40
2022-12-19T06:31:08.380Z,20.03
2022-12-19T06:33:35.768Z,19.23
2022-12-19T06:36:10.090Z,17.30
2022-12-19T06:38:37.497Z,20.43
2022-12-19T06:41:23.588Z,16.73
2022-12-19T06:43:53.564Z,14.63
2022-12-19T06:46:22.006Z,18.20
2022-12-19T06:48:49.481Z,18.30
2022-12-19T06:51:17.147Z,15.63
2022-12-19T06:53:44.751Z,19.57
2022-12-19T06:56:14.691Z,18.03
2022-12-19T06:58:42.554Z,20.17
2022-12-19T07:01:25.325Z,16.60
2022-12-19T07:03:53.061Z,20.37
2022-12-19T07:06:20.760Z,21.77
2022-12-19T07:08:48.127Z,18.27
2022-12-19T07:11:15.501Z,22.57
2022-12-19T07:13:42.771Z,16.40
2022-12-19T07:16:10.386Z,20.87
2022-12-19T07:18:40.258Z,23.83
2022-12-19T07:21:11.238Z,21.70
2022-12-19T07:23:39.627Z,18.93
2022-12-19T07:26:07.305Z,21.93
2022-12-19T07:28:35.658Z,18.07
2022-12-19T07:31:03.224Z,20.87
2022-12-19T07:33:30.640Z,19.13
2022-12-19T07:35:58.187Z,17.33
2022-12-19T07:38:25.777Z,20.93
2022-12-19T07:40:53.398Z,20.13
2022-12-19T07:43:20.787Z,23.97
2022-12-19T07:45:55.362Z,21.67
2022-12-19T07:48:23.612Z,18.57
2022-12-19T07:50:51.201Z,18.63
2022-12-19T07:53:19.727Z,19.37
2022-12-19T07:55:51.052Z,22.37
2022-12-19T07:58:18.684Z,18.30
2022-12-19T08:00:46.218Z,22.90
2022-12-19T08:03:13.717Z,19.37
2022-12-19T08:05:41.151Z,20.73
2022-12-19T08:08:10.018Z,22.77
2022-12-19T08:10:37.491Z,24.63
2022-12-19T08:13:04.983Z,18.73
2022-12-19T08:15:32.323Z,19.00
2022-12-19T08:17:59.720Z,15.57
2022-12-19T08:20:27.297Z,17.63
2022-12-19T08:22:54.746Z,25.17
2022-12-19T08:25:22.234Z,15.17
2022-12-19T08:27:49.607Z,21.83
2022-12-19T08:30:17.174Z,15.23
2022-12-19T08:32:45.343Z,22.53
2022-12-19T08:35:13.071Z,18.10
2022-12-19T08:37:40.583Z,21.20
2022-12-19T08:40:09.012Z,18.03
2022-12-19T08:42:37.393Z,18.77
2022-12-19T08:45:05.873Z,15.87
2022-12-19T08:47:33.456Z,17.73
2022-12-19T08:50:00.976Z,18.23
2022-12-19T08:52:28.411Z,17.57
2022-12-19T08:54:55.810Z,16.53
2022-12-19T08:57:23.232Z,18.23
2022-12-19T08:59:50.709Z,12.13
2022-12-19T09:02:19.424Z,16.23
2022-12-19T09:05:31.839Z,23.73
2022-12-19T09:07:37.824Z,17.50
2022-12-19T09:10:07.381Z,20.38
2022-12-19T09:12:34.647Z,19.17
2022-12-19T09:15:01.986Z,17.53
2022-12-19T09:17:29.390Z,18.93
2022-12-19T09:19:56.853Z,16.67
2022-12-19T09:22:27.583Z,16.77
2022-12-19T09:24:56.845Z,22.03
2022-12-19T09:27:24.204Z,17.87
2022-12-19T09:29:51.694Z,19.70
2022-12-19T09:32:19.072Z,13.20
2022-12-19T09:34:46.404Z,13.50
2022-12-19T09:37:17.026Z,16.10
2022-12-19T09:39:46.836Z,15.02
2022-12-19T09:42:45.677Z,15.77
2022-12-19T09:45:51.578Z,16.87
2022-12-19T09:48:23.975Z,20.67
2022-12-19T09:51:10.038Z,23.10
2022-12-19T09:54:15.285Z,24.97
2022-12-19T09:56:46.962Z,16.30
2022-12-19T09:59:50.126Z,19.47
2022-12-19T10:02:48.280Z,22.67
2022-12-19T10:05:36.550Z,15.07
2022-12-19T10:09:56.845Z,17.30
2022-12-19T10:12:51.421Z,18.93
2022-12-19T10:15:59.015Z,21.50
2022-12-19T10:19:00.322Z,17.83
2022-12-19T10:22:18.345Z,19.43
2022-12-19T10:25:19.606Z,20.93
2022-12-19T10:28:11.983Z,20.47
2022-12-19T10:34:24.602Z,22.53
2022-12-19T10:39:49.920Z,13.70
2022-12-19T10:42:32.440Z,21.80
2022-12-19T10:45:08.928Z,21.57
2022-12-19T10:47:37.120Z,15.50
2022-12-19T10:50:09.551Z,16.80
2022-12-19T10:53:08.517Z,15.03
2022-12-19T10:55:55.102Z,16.50
2022-12-19T10:58:32.015Z,16.90
2022-12-19T11:01:15.826Z,14.73
2022-12-19T11:03:48.098Z,18.30
2022-12-19T11:06:43.694Z,14.83
2022-12-19T11:09:40.853Z,18.20
2022-12-19T11:14:44.245Z,21.70
2022-12-19T11:24:14.519Z,21.03
2022-12-19T11:25:05.806Z,20.07
2022-12-19T11:29:25.823Z,16.43
2022-12-19T11:30:25.640Z,21.40
2022-12-19T11:30:48.666Z,16.20
2022-12-19T11:33:25.523Z,19.97
2022-12-19T11:35:55.090Z,15.63
2022-12-19T11:38:48.652Z,23.67
2022-12-19T11:41:34.142Z,19.70
2022-12-19T11:44:25.644Z,18.07
2022-12-19T11:47:13.864Z,23.50
2022-12-19T11:49:47.379Z,20.10
2022-12-19T11:56:16.138Z,17.57
2022-12-19T11:58:53.025Z,20.77
2022-12-19T12:02:02.577Z,19.47
2022-12-19T12:05:09.559Z,15.93
2022-12-19T12:08:49.372Z,19.40
2022-12-19T12:13:11.088Z,22.17
2022-12-19T12:20:49.835Z,24.75
2022-12-19T12:28:37.182Z,17.33
2022-12-19T12:31:04.716Z,21.17
2022-12-19T12:31:41.320Z,18.27
2022-12-19T12:31:52.224Z,20.43
2022-12-19T12:31:54.115Z,19.57
2022-12-19T12:35:54.321Z,24.03
2022-12-19T12:40:34.041Z,19.27
2022-12-19T12:43:22.431Z,22.83
2022-12-19T12:45:49.913Z,20.33
2022-12-19T12:48:28.566Z,15.70
2022-12-19T12:50:58.775Z,25.30
2022-12-19T12:53:34.283Z,19.80
2022-12-19T12:56:06.994Z,19.87
2022-12-19T12:59:05.141Z,17.50
2022-12-19T13:01:36.739Z,17.47
2022-12-19T13:04:21.652Z,19.50
2022-12-19T13:07:19.404Z,19.47
2022-12-19T13:09:54.696Z,24.93
2022-12-19T13:12:45.829Z,17.73
2022-12-19T13:15:32.749Z,22.27
2022-12-19T13:18:09.378Z,19.00
2022-12-19T13:20:44.607Z,17.20
2022-12-19T13:23:34.947Z,23.27
2022-12-19T13:26:02.551Z,20.27
2022-12-19T13:28:39.357Z,18.77
2022-12-19T13:31:20.649Z,21.20
2022-12-19T13:34:19.388Z,18.20
2022-12-19T13:40:02.347Z,24.43
2022-12-19T13:41:25.601Z,23.00
2022-12-19T13:43:59.821Z,23.88
2022-12-19T13:46:42.983Z,16.30
2022-12-19T13:49:23.505Z,19.30
2022-12-19T13:51:57.366Z,21.75
2022-12-19T13:54:33.064Z,23.00
2022-12-19T13:57:04.313Z,21.47
2022-12-19T13:59:40.064Z,27.83
2022-12-19T14:02:15.471Z,27.83
2022-12-19T14:04:44.985Z,20.53
2022-12-19T14:07:46.171Z,20.00
2022-12-19T14:11:30.253Z,28.77
2022-12-19T14:13:59.390Z,24.60
2022-12-19T14:16:18.684Z,23.60
2022-12-19T14:18:50.531Z,30.73
2022-12-19T14:22:11.105Z,29.05
2022-12-19T14:24:22.661Z,23.35
2022-12-19T14:28:19.205Z,22.40
2022-12-19T14:30:30.181Z,26.17
2022-12-19T14:33:44.056Z,26.10
2022-12-19T14:36:07.679Z,25.00
2022-12-19T14:39:25.135Z,29.87
2022-12-19T14:42:01.321Z,29.23
2022-12-19T14:53:51.782Z,30.85
2022-12-19T14:53:52.563Z,26.43
2022-12-19T14:54:26.486Z,25.27
2022-12-19T14:54:31.359Z,28.83
2022-12-19T14:56:53.674Z,19.20
2022-12-19T14:59:35.854Z,30.33
2022-12-19T15:02:12.383Z,25.77
2022-12-19T15:04:52.361Z,29.20
2022-12-19T15:07:25.634Z,29.75
2022-12-19T15:11:06.716Z,23.52
2022-12-19T15:14:47.323Z,26.60
2022-12-19T15:16:45.464Z,23.63
2022-12-19T15:19:15.699Z,24.60
2022-12-19T15:21:43.077Z,25.57
2022-12-19T15:24:10.328Z,24.80
2022-12-19T15:26:48.109Z,23.47
2022-12-19T15:29:21.668Z,29.47
2022-12-19T15:31:49.713Z,22.47
2022-12-19T15:34:35.780Z,22.53
2022-12-19T15:37:03.543Z,26.70
2022-12-19T15:39:30.980Z,24.70
2022-12-19T15:42:00.234Z,25.23
2022-12-19T15:44:36.901Z,28.47
2022-12-19T15:47:15.617Z,23.07
2022-12-19T15:49:43.022Z,25.60
2022-12-19T15:52:18.655Z,25.30
2022-12-19T15:54:49.381Z,29.10
2022-12-19T15:57:32.309Z,26.52
2022-12-19T16:00:04.783Z,19.70
2022-12-19T16:03:04.582Z,24.03
2022-12-19T16:05:22.146Z,21.03
2022-12-19T16:07:50.146Z,25.30
2022-12-19T16:10:18.137Z,27.23
2022-12-19T16:12:50.644Z,24.87
2022-12-19T16:15:26.464Z,24.67
2022-12-19T16:17:55.462Z,21.87
2022-12-19T16:20:29.111Z,23.23
2022-12-19T16:22:56.813Z,25.33
2022-12-19T16:25:33.346Z,23.67
2022-12-19T16:28:01.914Z,21.77
2022-12-19T16:30:31.599Z,22.17
2022-12-19T16:32:59.710Z,21.10
2022-12-19T16:36:02.543Z,26.33
2022-12-19T16:38:17.418Z,21.60
2022-12-19T16:40:45.489Z,17.13
2022-12-19T16:43:32.727Z,23.20
2022-12-19T16:46:01.837Z,22.90
2022-12-19T16:48:30.114Z,23.17
2022-12-19T16:50:58.953Z,17.57
2022-12-19T16:53:26.439Z,18.70
2022-12-19T16:55:55.402Z,20.03
2022-12-19T16:58:25.488Z,20.87
2022-12-19T17:00:55.195Z,22.47
2022-12-19T17:03:34.524Z,20.77
2022-12-19T17:06:02.128Z,24.17
2022-12-19T17:08:29.711Z,24.53
2022-12-19T17:10:57.055Z,22.80
2022-12-19T17:13:25.394Z,27.83
2022-12-19T17:15:57.081Z,20.27
2022-12-19T17:21:02.637Z,21.53
2022-12-19T17:23:32.444Z,21.43
2022-12-19T17:26:00.873Z,20.73
2022-12-19T17:28:28.991Z,23.27
2022-12-19T17:30:58.737Z,24.43
2022-12-19T17:33:36.873Z,19.40
2022-12-19T17:36:05.871Z,20.97
2022-12-19T17:38:33.994Z,25.87
2022-12-19T17:41:01.500Z,23.53
2022-12-19T17:43:29.297Z,21.00
2022-12-19T17:45:57.065Z,21.30
2022-12-19T17:48:28.957Z,18.40
2022-12-19T17:50:57.043Z,20.50
2022-12-19T17:53:24.759Z,26.90
2022-12-19T17:55:52.691Z,17.80
2022-12-19T17:58:21.592Z,23.57
2022-12-19T18:00:51.079Z,16.93
2022-12-19T18:03:25.086Z,19.23
2022-12-19T18:05:54.851Z,19.93
2022-12-19T18:08:31.330Z,19.10
2022-12-19T18:11:01.809Z,21.83
2022-12-19T18:13:30.772Z,24.30
2022-12-19T18:16:00.433Z,23.13
2022-12-19T18:18:30.956Z,20.10
2022-12-19T18:21:00.086Z,19.83
2022-12-19T18:23:27.897Z,22.30
2022-12-19T18:26:01.094Z,24.00
2022-12-19T18:28:29.057Z,24.43
2022-12-19T18:31:02.549Z,17.60
2022-12-19T18:33:36.891Z,24.93
2022-12-19T18:36:05.915Z,21.17
2022-12-19T18:38:33.240Z,26.47
2022-12-19T18:41:00.657Z,21.37
2022-12-19T18:43:28.020Z,20.37
2022-12-19T18:45:55.906Z,24.03
2022-12-19T18:48:37.109Z,26.70
2022-12-19T18:51:05.498Z,23.73
2022-12-19T18:53:35.718Z,21.20
2022-12-19T18:56:06.161Z,19.30
2022-12-19T18:58:34.472Z,22.93
2022-12-19T19:01:03.606Z,21.80
2022-12-19T19:03:37.975Z,25.27
2022-12-19T19:06:13.876Z,21.17
2022-12-19T19:08:41.168Z,20.47
2022-12-19T19:11:26.441Z,21.87
2022-12-19T19:13:53.802Z,20.47
2022-12-19T19:16:25.921Z,21.13
2022-12-19T19:18:56.119Z,20.13
2022-12-19T19:21:27.343Z,24.53
2022-12-19T19:24:04.026Z,16.92
2022-12-19T19:26:31.558Z,22.53
2022-12-19T19:28:59.001Z,22.70
2022-12-19T19:31:30.109Z,18.00
2022-12-19T19:34:03.752Z,20.90
2022-12-19T19:36:35.950Z,20.20
2022-12-19T19:39:04.503Z,19.87
2022-12-19T19:41:33.069Z,21.53
2022-12-19T19:44:00.413Z,19.90
2022-12-19T19:46:28.248Z,21.03
2022-12-19T19:48:56.029Z,27.17
2022-12-19T19:51:23.432Z,17.63
2022-12-19T19:53:51.386Z,18.67
2022-12-19T19:56:18.736Z,17.73
2022-12-19T19:58:46.014Z,20.43
2022-12-19T20:01:14.147Z,23.10
2022-12-19T20:03:43.145Z,15.87
2022-12-19T20:06:11.185Z,17.27
2022-12-19T20:08:40.204Z,18.30
2022-12-19T20:11:09.627Z,17.00
2022-12-19T20:13:37.793Z,20.80
2022-12-19T20:16:11.283Z,20.13
2022-12-19T20:18:40.215Z,16.63
2022-12-19T20:21:13.403Z,18.60
2022-12-19T20:23:42.878Z,16.10
2022-12-19T20:26:12.225Z,21.83
2022-12-19T20:28:47.751Z,21.60
2022-12-19T20:31:19.892Z,24.57
2022-12-19T20:33:48.516Z,20.93
2022-12-19T20:36:17.235Z,15.00
2022-12-19T20:38:45.164Z,22.10
2022-12-19T20:41:12.920Z,17.53
2022-12-19T20:43:41.314Z,17.63
2022-12-19T20:46:17.839Z,18.47
2022-12-19T20:48:46.265Z,23.57
2022-12-19T20:51:15.310Z,22.90
2022-12-19T20:53:43.208Z,15.97
2022-12-19T20:56:14.633Z,21.53
2022-12-19T20:58:42.049Z,19.85
2022-12-19T21:01:29.587Z,21.07
2022-12-19T21:03:57.194Z,21.43
2022-12-19T21:06:28.381Z,16.43
2022-12-19T21:08:56.926Z,17.23
2022-12-19T21:11:26.533Z,18.97
2022-12-19T21:13:54.040Z,21.60
2022-12-19T21:16:23.196Z,22.57
2022-12-19T21:18:51.249Z,19.03
2022-12-19T21:21:22.331Z,18.23
2022-12-19T21:23:50.548Z,19.63
2022-12-19T21:26:18.850Z,16.93
2022-12-19T21:28:46.207Z,21.63
2022-12-19T21:31:25.428Z,24.13
2022-12-19T21:33:58.998Z,22.87
2022-12-19T21:36:27.815Z,18.07
2022-12-19T21:38:57.814Z,20.63
2022-12-19T21:41:25.696Z,23.40
2022-12-19T21:43:55.000Z,22.77
2022-12-19T21:46:25.146Z,19.23
2022-12-19T21:48:55.011Z,17.67
2022-12-19T21:51:25.083Z,23.30
2022-12-19T21:53:58.281Z,18.97
2022-12-19T21:56:28.191Z,20.13
2022-12-19T21:58:58.216Z,17.77
2022-12-19T22:01:26.639Z,24.17
2022-12-19T22:03:58.939Z,19.30
2022-12-19T22:06:29.670Z,17.53
2022-12-19T22:08:57.088Z,18.63
2022-12-19T22:11:25.246Z,24.67
2022-12-19T22:13:53.244Z,23.40
2022-12-19T22:16:20.729Z,24.33
2022-12-19T22:18:48.193Z,20.40
2022-12-19T22:21:15.610Z,21.57
2022-12-19T22:23:42.961Z,23.50
2022-12-19T22:26:16.262Z,17.30
2022-12-19T22:28:46.035Z,18.60
2022-12-19T22:31:20.275Z,20.13
2022-12-19T22:33:49.294Z,24.20
2022-12-19T22:36:22.351Z,21.13
2022-12-19T22:38:53.780Z,18.50
2022-12-19T22:41:21.187Z,19.33
2022-12-19T22:43:48.615Z,19.23
2022-12-19T22:46:26.341Z,22.07
2022-12-19T22:48:56.156Z,19.00
2022-12-19T22:51:23.530Z,22.33
2022-12-19T22:53:51.208Z,20.07
2022-12-19T22:56:22.189Z,24.30
2022-12-19T22:58:51.660Z,21.27
2022-12-19T23:01:28.458Z,20.50
2022-12-19T23:03:58.687Z,17.90
2022-12-19T23:06:28.094Z,19.97
2022-12-19T23:08:55.553Z,21.37
2022-12-19T23:11:29.957Z,20.00
2022-12-19T23:13:57.743Z,20.77
2022-12-19T23:16:25.171Z,23.47
2022-12-19T23:18:52.532Z,23.63
2022-12-19T23:21:21.946Z,20.10
2022-12-19T23:23:51.717Z,17.70
2022-12-19T23:26:22.109Z,18.97
2022-12-19T23:28:57.759Z,18.83
2022-12-19T23:31:25.883Z,22.97
2022-12-19T23:33:53.716Z,20.97
2022-12-19T23:36:45.260Z,23.73
2022-12-19T23:39:11.080Z,23.37
2022-12-19T23:41:39.078Z,20.93
2022-12-19T23:44:06.404Z,21.30
2022-12-19T23:46:33.723Z,23.83
2022-12-19T23:49:01.087Z,23.37
2022-12-19T23:51:28.862Z,24.47
2022-12-19T23:53:56.885Z,20.23
2022-12-19T23:56:29.235Z,23.93
2022-12-19T23:58:57.014Z,22.13
